HAYWOOD NORAM Interval Start FT | Zone4.ca



 HAYWOOD NORAM Interval Start FT

Date: Dec 12, 2010
Official  Results
Location: SOVEREIGN LAKE, B.C.
Host Club: Sovereign Lake Nordic Club

Jury
T. D.    Claude Chabot  
Chief of Race  Sharon Clarke  
CCC Race Director  Dave Dyer  
A.T.D.  Denis Brown 
Obs. Time: 09:00
Wind Vel:  16 km/hr Wind Dir: ESE
Air Temp: -3.8 degrees C Snow Temp: -0.8 degrees C
Weather: Blowing snow Snow Cond: Soft fresh

OPEN MEN 15 km. Free   Course Info:  MC: 39m   HD: 52m   TC: 447m 
PL Bib Name Rnk YOB CCCL Club Team Time Lap1 Lap2 Lap3 Diff
1 90 Lars Flora 1/50 1978 12986 APUNSC   0:41:39.29 0:13:46.82 0:14:02.25 0:13:50.22  
2 96 Graham Nishikawa 2/50 1983 12673 Whitehorse AWCA 0:42:09.79 0:13:55.48 0:14:13.73 0:14:00.58 +30.50
3 89 Brian Gregg 3/50 1984 16774 CXC Team   0:42:13.74 0:13:56.66 0:14:21.25 0:13:55.83 +34.45
4 97 James Southam 4/50 1978 13025 APUNSC APUNSC 0:42:20.34 0:13:51.22 0:14:17.49 0:14:11.63 +41.05
5 84 Drew Goldsack 5/50 1981 5835 Rocky Mountain NST 0:42:31.87 0:13:59.39 0:14:20.71 0:14:11.77 +52.58
6 88 Michael Sinnott 6/50 1985 13964 Sun Valley SEF   0:42:37.58 0:14:09.36 0:14:24.40 0:14:03.82 +58.29
7 95 Garrott Kuzzy 7/50 1982 13863 CXC Team   0:42:40.41 0:13:54.06 0:14:32.92 0:14:13.43 +1:01.12
8 67 Erik Carleton 8/50 1978 5398 Rocky Mountain RMR 0:42:43.99 0:13:52.93 0:14:14.97 0:14:36.09 +1:04.70
9 82 Pate Neumann 9/50 1987 14218 Canmore AWCA 0:42:56.35 0:13:53.55 0:14:29.85 0:14:32.95 +1:17.06
10 91 Graeme Killick 10/50 1989 14133 Banff Ski Runners NST 0:43:01.86 0:14:21.31 0:14:28.60 0:14:11.95 +1:22.57
11 74 Jesse Cockney 11/50 1989 13931 Foothills AWCA 0:43:12.75 0:14:05.29 0:14:39.18 0:14:28.28 +1:33.46
12 85 Kevin Sandau 12/50 1988 13504 Foothills   0:43:17.57 0:13:58.62 0:14:41.54 0:14:37.41 +1:38.28
13 94 Bryan Cook 13/50 1983 13413 CXC Team   0:43:21.70 0:14:21.59 0:14:33.09 0:14:27.02 +1:42.41
14 87 Christopher Butler 14/50 1986 13039 Big Thunder AWCA 0:43:23.63 0:14:11.03 0:14:46.46 0:14:26.14 +1:44.34
15 77 Michael Somppi 15/50 1988 13526 Lappe NDC Thunder Bay 0:43:33.95 0:14:17.15 0:14:48.27 0:14:28.53 +1:54.66
16 93 Frederic Touchette 16/50 1988 13497 M.S.A. NST  0:43:40.52 0:14:24.29 0:14:47.29 0:14:28.94 +2:01.23
17 92 Matt Liebsch 17/50 1983 18845 CXC Team   0:43:56.91 0:14:09.21 0:14:59.25 0:14:48.45 +2:17.62
18 65 Aidan Lennie 18/50 1989 14235 Nakkertok-ON Ontario Ski Team 0:43:57.69 0:14:24.38 0:14:43.87 0:14:49.44 +2:18.40
19 70 Patrick Johnson 19/50 1989 17263 APUNSC APUNSC 0:44:00.07 0:14:19.59 0:14:53.47 0:14:47.01 +2:20.78
20 80 Brenton Knight 20/50 1984 17259 APUNSC   0:44:02.88 0:14:35.58 0:14:47.78 0:14:39.52 +2:23.59
21 66 Steffan Lloyd 21/50 1990 14503 Nakkertok Nordique Quebec Team 0:44:09.95 0:14:03.78 0:15:01.36 0:15:04.81 +2:30.66
22 79 David Greer 22/50 1989 13738 Whitehorse CNEPH 0:44:16.70 0:14:44.14 0:14:56.35 0:14:36.21 +2:37.41
23 45 Colin Rodgers 23/50 1981 15562 Sun Valley SEF Madshus 0:44:22.52 0:14:53.76 0:14:50.50 0:14:38.26 +2:43.23
24 72 Etienne Richard 24/50 1990 14054 Skibec CNEPH 0:44:22.59 0:14:44.83 0:14:49.24 0:14:48.52 +2:43.30
25 75 Bart Dengel 25/50 1984 16777 APUNSC APUNSC 0:44:42.59 0:14:32.64 0:15:08.44 0:15:01.51 +3:03.30
26 68 Gerard Garnier 26/50 1989 13932 Banff Ski Runners   0:44:42.76 0:14:23.76 0:15:09.55 0:15:09.45 +3:03.47
27 10 Matt Neumann 27/50 1989 14284 Caledonia   0:44:47.70 0:14:25.72 0:15:14.86 0:15:07.12 +3:08.41
28 76 Mark Iverson 28/50 1982 13449 APUNSC APUNSC 0:44:52.64 0:14:38.90 0:15:02.46 0:15:11.28 +3:13.35
29 73 Robin McKeever 29/50 1973 2707 Foothills PNST 0:44:54.76 0:14:34.92 0:15:02.41 0:15:17.43 +3:15.47
30 57 Chris Hamilton 30/50 1989 13690 Big Thunder NDC Thunder Bay 0:45:05.88 0:14:44.29 0:15:13.09 0:15:08.50 +3:26.59
31 52 Andy Shields 1/12 1991 14504 Waterloo Region NDC Thunder Bay 0:45:08.02 0:14:58.39 0:15:04.20 0:15:05.43 +3:28.73
32 35 Matt Wylie 31/50 1989 13679 Banff Ski Runners   0:45:09.08 0:14:48.94 0:15:05.99 0:15:14.15 +3:29.79
33 60 Bob Thompson 2/12 1991 14312 Team Hardwood AWCA 0:45:42.53 0:14:49.90 0:15:27.42 0:15:25.21 +4:03.24
34 46 Geoffrey Richards 1/23 1992 18425 Black Jack CVTC 0:45:43.60 0:14:54.29 0:15:24.30 0:15:25.01 +4:04.31
35 71 Harry Seaton 32/50 1987 13737 Team Hardwood NDC Thunder Bay 0:45:46.16 0:14:50.43 0:15:32.17 0:15:23.56 +4:06.87
36 61 Chris Darlington 33/50 1982 15635 Boonoona Australia   0:45:55.16 0:15:06.14 0:15:19.10 0:15:29.92 +4:15.87
37 78 Brayton Osgood 34/50 1981 13860 XC Oregon   0:46:01.52 0:14:58.04 0:15:24.48 0:15:39.00 +4:22.23
38 58 Phil Wood 35/50 1985 13614 Canmore   0:46:07.53 0:15:01.09 0:15:36.43 0:15:30.01 +4:28.24
39 50 Thomsen D'Hont 36/50 1988 12916 Yellowknife CVTC 0:46:14.27 0:15:06.50 0:15:34.60 0:15:33.17 +4:34.98
40 32 Alex Mahoney 2/23 1992 14608 Rocky Mountain AST 0:46:16.22 0:14:42.31 0:15:44.88 0:15:49.03 +4:36.93
41 49 Raphaël Couturier 3/23 1993 18415 Skibec CNEPH 0:46:20.75 0:15:17.77 0:15:37.50 0:15:25.48 +4:41.46
42 55 Peter Kling 37/50 1987 17486 APUNSC APUNSC 0:46:29.35 0:15:24.48 0:15:33.77 0:15:31.10 +4:50.06
43 38 Dudley Coulter 38/50 1990 18443 Big Thunder NDC Thunder Bay 0:46:31.49 0:15:12.59 0:15:45.95 0:15:32.95 +4:52.20
44 54 Jesse Heckrodt 39/50 1985 12908 larch hills Uni BC-Okan 0:46:48.89 0:14:59.30 0:15:41.62 0:16:07.97 +5:09.60
45 31 Kurtis Wenzel 3/12 1991 14552 Rocky Mountain Alberta Ski Team 0:47:01.07 0:15:13.62 0:15:50.50 0:15:56.95 +5:21.78
46 64 Zach Holland 4/23 1992 14628 Banff Ski Runners AWCA 0:47:01.49 0:15:11.79 0:15:57.37 0:15:52.33 +5:22.20
47 37 Anthony Killick 40/50 1987 13347 Banff Ski Runners   0:47:13.90 0:15:10.15 0:16:02.69 0:16:01.06 +5:34.61
48 48 Martin Schrama 5/23 1992 18392 Banff Ski Runners Alberta 0:47:22.72 0:15:28.12 0:16:00.57 0:15:54.03 +5:43.43
49 34 Jimmy Gunka 4/12 1991 14417 Big Thunder NDC Thunder Bay 0:47:26.54 0:15:13.78 0:16:09.09 0:16:03.67 +5:47.25
50 36 Jeff Wood 6/23 1992 18428 Whitehorse CVTC 0:47:31.98 0:15:27.34 0:16:15.09 0:15:49.55 +5:52.69
51 51 Jordan Cascagnette 5/12 1991 14334 Team Hardwood AWCA 0:47:38.80 0:15:20.70 0:16:07.65 0:16:10.45 +5:59.51
52 21 Scott Hill 7/23 1994 19642 Team Hardwood Ontario Ski Team 0:47:46.34 0:15:41.22 0:15:57.75 0:16:07.37 +6:07.05
53 11 Russell Kennedy 6/12 1991 25625 Canmore   0:47:48.53 0:15:40.44 0:16:13.07 0:15:55.02 +6:09.24
54 40 G. Michaud-Ethier 8/23 1992 14636 Nakkertok Nordique Québec dév 0:47:58.18 0:15:29.08 0:16:09.34 0:16:19.76 +6:18.89
55 29 Jeffrey Kerkovius 9/23 1992 18444 Telemark Telemark JR 0:48:05.70 0:15:08.88 0:16:30.58 0:16:26.24 +6:26.41
56 63 Reese Hanneman 41/50 1989 21122 APUNSC   0:48:11.64 0:15:15.62 0:16:10.85 0:16:45.17 +6:32.35
57 56 Colin Abbott 42/50 1990 14227 Whitehorse Yukon Ski Team 0:48:22.55 0:15:44.82 0:16:23.47 0:16:14.26 +6:43.26
58 7 Martin Struna 43/50 1979   Jablonec Nad Nisou   0:48:27.76 0:15:22.23 0:16:35.35 0:16:30.18 +6:48.47
59 41 Xavier Bouchard 7/12 1991 14431 Nakkertok Nordique Québec 0:48:34.51 0:15:48.98 0:16:24.07 0:16:21.46 +6:55.22
60 39 Sébastien Townsend 10/23 1992 18484 Nakkertok Nordique Nakkertok 0:48:37.65 0:15:51.52 0:16:32.47 0:16:13.66 +6:58.36
61 53 Knute Johnsgaard 11/23 1992 21623 CNEPH Yukon 0:48:39.19 0:15:43.55 0:16:28.49 0:16:27.15 +6:59.90
62 43 Leif Lennie 44/50 1990 14616 Nakkertok-ON NDC Thunder Bay 0:48:52.61 0:15:31.46 0:16:36.14 0:16:45.01 +7:13.32
63 24 Paul Dupuis 12/23 1993 14604 Canmore Alberta Ski Team 0:48:54.24 0:16:02.72 0:16:31.14 0:16:20.38 +7:14.95
64 44 Skeets Morel 45/50 1983 12829 Sovereign Lake   0:49:07.09 0:16:07.16 0:16:33.62 0:16:26.31 +7:27.80
65 33 Evan Odell 8/12 1991 14313 Team Hardwood Ontario Ski Team 0:49:15.78 0:15:53.46 0:16:40.59 0:16:41.73 +7:36.49
66 59 Joey Burton 46/50 1990 14148 Overlander AWCA 0:49:34.66 0:15:43.72 0:16:32.62 0:17:18.32 +7:55.37
67 42 Scott Sullivan 47/50 1989 13718 Big Thunder NDC Thunder Bay 0:49:41.19 0:15:37.94 0:16:58.27 0:17:04.98 +8:01.90
68 17 Kai Lukowiak 9/12 1991 14564 Foothills   0:49:44.70 0:15:49.19 0:16:42.49 0:17:13.02 +8:05.41
69 25 D. Moncion-Groulx 13/23 1993 19561 Nakkertok Nordique   0:49:47.40 0:16:19.34 0:17:10.98 0:16:17.08 +8:08.11
70 18 David Palmer 14/23 1993 18506 Telemark   0:50:07.58 0:16:05.62 0:16:55.61 0:17:06.35 +8:28.29
71 22 James Taylor 15/23 1992 19577 Nakkertok-ON Ontario Ski Team 0:50:14.84 0:16:00.29 0:17:03.88 0:17:10.67 +8:35.55
72 26 Jack Carlyle 16/23 1993 19782 Soo Finnish Ontario Ski Team 0:50:20.10 0:16:35.74 0:16:46.89 0:16:57.47 +8:40.81
73 23 Phillip Bellingham 10/12 1991 23663 Birkebeiner Nordic   0:50:29.93 0:16:27.41 0:17:14.03 0:16:48.49 +8:50.64
74 19 Julien Locke 17/23 1993 21432 Black Jack   0:50:57.01 0:16:16.58 0:17:08.37 0:17:32.06 +9:17.72
75 27 Nick Monette 18/23 1993 19580 Team Hardwood Ontario Ski Team 0:51:13.41 0:16:31.81 0:16:57.44 0:17:44.16 +9:34.12
76 47 Riel Allain 19/23 1992 19562 Nakkertok Nordique the A team 0:51:24.70 0:16:12.45 0:17:30.62 0:17:41.63 +9:45.41
77 14 Shawn deGroot 20/23 1994 23737 Black Jack   0:51:35.50 0:16:40.76 0:17:23.19 0:17:31.55 +9:56.21
78 12 Kurt Behnsen 21/23 1992 18881 Telemark   0:51:43.21 0:16:32.61 0:17:48.05 0:17:22.55 +10:03.92
79 13 Peter Locke 22/23 1993 21433 Black Jack   0:52:01.97 0:16:23.22 0:18:54.10 0:16:44.65 +10:22.68
80 28 Patrick Monette 11/12 1991 14585 Team Hardwood U of T 0:53:16.70 0:16:44.99 0:18:05.23 0:18:26.48 +11:37.41
81 9 David Harbocian 48/50 1988 14479 Sovereign Lake   0:53:17.55 0:17:25.97 0:17:50.53 0:18:01.05 +11:38.26
82 20 Vincent Prenioslo 23/23 1992 19665 Foothills   0:53:18.96 0:16:41.46 0:17:52.49 0:18:45.01 +11:39.67
83 15 Mike Norton 49/50 1974 23616 Canmore Norton 0:53:39.19 0:17:18.14 0:18:03.51 0:18:17.54 +11:59.90
84 16 Paul Kovacs 50/50 1990 19702 Birkebiener Nordic   0:54:25.45 0:17:23.60 0:18:26.29 0:18:35.56 +12:46.16
85 30 Nansen Weber 12/12 1991 14366 Nakkertok Nordique   0:54:25.83 0:16:48.23 0:18:51.12 0:18:46.48 +12:46.54
DNF 62 Patrick Stewart-Jones * 1991 14471  Nakkertok Nordique Québec *** 0:15:42.72 0:16:35.57 *** ***
DNF 69 Andrew Stewart-Jones * 1990 14472 Nakkertok Nordique CNEPH *** 0:15:00.70 *** *** ***
DNS 1 Sawyer Kesselheim * 1993   BSF   *** *** *** *** ***
DNS 2 Akeo Maifeld-Carucci * 1993   BSF BSF *** *** *** *** ***
DNS 3 Kevin Farrell * 1975   Leavenworth   *** *** *** *** ***
DNS 4 William Meyer * 1993   BSF   *** *** *** *** ***
DNS 5 Justin Carvitto * 1978   Leavenworth LWSC *** *** *** *** ***
DNS 6 Cole Morgan * 1994   BSF   *** *** *** *** ***
DNS 8 Alexander Westesen * 2011   BSF Nordic *** *** *** *** ***
DNS 81 Brian McKeever * 1979 5880 Foothills   *** *** *** *** ***
DNS 83 Glenn Randall * 1986 16772 BSF   *** *** *** *** ***
DNS 86 Leif Zimmermann * 1983 13412 BSF   *** *** *** *** ***


Results are posted through an automated system by licenced clubs. For inquires about result corrections please contact the race organizer.

Copyright 2017 - Zone4 Systems zone4.ca       Privacy Policy     Delivery/Refund Policy     Terms of Service    Contact Zone4